WST901 MYBS-MYNN
Flight info
| Callsign | WST901 |
|---|---|
| Flight time | 0h 23m |
| Altitude | 15000 |
| Route | RAJAY |
| Aircraft | E145/M-SDFGIRW/S |
Departure
| Time | 2026-05-05 00:13 |
|---|---|
| Airport | South Bimini Airport (MYBS) |
Arrival
| Time | 2026-05-05 00:36 |
|---|---|
| Airport | Lynden Pindling International Airport (MYNN) |
| Time | Latitude | Longitude | Altitude | Speed | Heading |
|---|---|---|---|---|---|
| 2026-05-05 00:12 | 25.69809 | -79.24412 | 982 ft | 145 kts | 94° |
| 2026-05-05 00:13 | 25.69709 | -79.23384 | 1520 ft | 149 kts | 94° |
| 2026-05-05 00:13 | 25.69592 | -79.22311 | 2071 ft | 153 kts | 98° |
| 2026-05-05 00:13 | 25.69068 | -79.21365 | 2608 ft | 161 kts | 137° |
| 2026-05-05 00:13 | 25.68251 | -79.20662 | 3155 ft | 164 kts | 139° |
| 2026-05-05 00:14 | 25.67543 | -79.19854 | 3655 ft | 152 kts | 123° |
| 2026-05-05 00:14 | 25.67022 | -79.18926 | 4194 ft | 151 kts | 117° |
| 2026-05-05 00:14 | 25.66586 | -79.17975 | 4640 ft | 160 kts | 114° |
| 2026-05-05 00:14 | 25.66135 | -79.16858 | 5180 ft | 170 kts | 114° |
| 2026-05-05 00:15 | 25.65694 | -79.15698 | 5746 ft | 179 kts | 114° |
| 2026-05-05 00:15 | 25.65247 | -79.14487 | 6302 ft | 188 kts | 114° |
| 2026-05-05 00:15 | 25.64790 | -79.13238 | 6849 ft | 198 kts | 114° |
| 2026-05-05 00:15 | 25.64308 | -79.11913 | 7406 ft | 208 kts | 114° |
| 2026-05-05 00:16 | 25.63791 | -79.10487 | 7968 ft | 219 kts | 115° |
| 2026-05-05 00:16 | 25.63252 | -79.09005 | 8527 ft | 230 kts | 115° |
| 2026-05-05 00:16 | 25.62700 | -79.07482 | 9072 ft | 241 kts | 115° |
| 2026-05-05 00:16 | 25.62110 | -79.05857 | 9625 ft | 252 kts | 115° |
| 2026-05-05 00:17 | 25.61489 | -79.04147 | 10178 ft | 263 kts | 115° |
| 2026-05-05 00:17 | 25.60850 | -79.02389 | 10722 ft | 274 kts | 115° |
| 2026-05-05 00:17 | 25.60182 | -79.00552 | 11264 ft | 285 kts | 115° |
| 2026-05-05 00:17 | 25.59500 | -78.98678 | 11802 ft | 294 kts | 114° |
| 2026-05-05 00:18 | 25.58789 | -78.96724 | 12342 ft | 304 kts | 114° |
| 2026-05-05 00:18 | 25.58062 | -78.94725 | 12878 ft | 312 kts | 114° |
| 2026-05-05 00:18 | 25.57321 | -78.92692 | 13407 ft | 320 kts | 114° |
| 2026-05-05 00:18 | 25.56551 | -78.90580 | 13938 ft | 328 kts | 114° |
| 2026-05-05 00:19 | 25.55767 | -78.88429 | 14467 ft | 335 kts | 114° |
| 2026-05-05 00:19 | 25.54947 | -78.86182 | 15002 ft | 341 kts | 114° |
| 2026-05-05 00:19 | 25.54097 | -78.83856 | 15458 ft | 351 kts | 114° |
| 2026-05-05 00:19 | 25.53164 | -78.81304 | 15094 ft | 389 kts | 114° |
| 2026-05-05 00:20 | 25.52159 | -78.78554 | 15007 ft | 413 kts | 114° |
| 2026-05-05 00:20 | 25.51146 | -78.75783 | 14984 ft | 416 kts | 114° |
| 2026-05-05 00:20 | 25.50136 | -78.73025 | 14986 ft | 413 kts | 114° |
| 2026-05-05 00:20 | 25.49129 | -78.70276 | 14975 ft | 410 kts | 114° |
| 2026-05-05 00:21 | 25.48131 | -78.67555 | 14979 ft | 407 kts | 114° |
| 2026-05-05 00:21 | 25.47120 | -78.64799 | 14980 ft | 405 kts | 114° |
| 2026-05-05 00:21 | 25.46139 | -78.62122 | 14978 ft | 403 kts | 114° |
| 2026-05-05 00:21 | 25.45150 | -78.59415 | 14976 ft | 402 kts | 113° |
| 2026-05-05 00:22 | 25.44171 | -78.56750 | 14977 ft | 400 kts | 114° |
| 2026-05-05 00:22 | 25.43193 | -78.54108 | 14974 ft | 399 kts | 114° |
| 2026-05-05 00:22 | 25.42214 | -78.51447 | 14973 ft | 398 kts | 114° |
| 2026-05-05 00:22 | 25.41235 | -78.48792 | 14974 ft | 397 kts | 114° |
| 2026-05-05 00:23 | 25.40260 | -78.46133 | 14972 ft | 396 kts | 114° |
| 2026-05-05 00:23 | 25.39214 | -78.43294 | 14976 ft | 396 kts | 114° |
| 2026-05-05 00:23 | 25.38195 | -78.40517 | 14978 ft | 401 kts | 114° |
| 2026-05-05 00:23 | 25.37130 | -78.37654 | 14979 ft | 408 kts | 114° |
| 2026-05-05 00:24 | 25.36058 | -78.34760 | 14982 ft | 414 kts | 114° |
| 2026-05-05 00:24 | 25.34965 | -78.31808 | 14971 ft | 419 kts | 114° |
| 2026-05-05 00:24 | 25.33868 | -78.28844 | 14972 ft | 423 kts | 114° |
| 2026-05-05 00:24 | 25.32751 | -78.25827 | 14972 ft | 427 kts | 114° |
| 2026-05-05 00:25 | 25.31614 | -78.22758 | 14972 ft | 430 kts | 114° |
| 2026-05-05 00:25 | 25.30480 | -78.19698 | 14973 ft | 433 kts | 114° |
| 2026-05-05 00:25 | 25.29648 | -78.16650 | 14959 ft | 418 kts | 104° |
| 2026-05-05 00:25 | 25.29000 | -78.13570 | 14497 ft | 406 kts | 104° |
| 2026-05-05 00:26 | 25.28367 | -78.10600 | 14020 ft | 392 kts | 104° |
| 2026-05-05 00:26 | 25.27751 | -78.07717 | 13531 ft | 379 kts | 104° |
| 2026-05-05 00:26 | 25.27154 | -78.04926 | 13049 ft | 368 kts | 104° |
| 2026-05-05 00:26 | 25.26575 | -78.02219 | 12558 ft | 359 kts | 104° |
| 2026-05-05 00:27 | 25.26010 | -77.99586 | 12076 ft | 351 kts | 104° |
| 2026-05-05 00:27 | 25.25451 | -77.96982 | 11604 ft | 343 kts | 104° |
| 2026-05-05 00:27 | 25.24910 | -77.94460 | 11179 ft | 335 kts | 104° |
| 2026-05-05 00:27 | 25.24389 | -77.92033 | 10809 ft | 326 kts | 105° |
| 2026-05-05 00:28 | 25.23867 | -77.89606 | 10469 ft | 317 kts | 105° |
| 2026-05-05 00:28 | 25.23363 | -77.87270 | 10178 ft | 308 kts | 105° |
| 2026-05-05 00:28 | 25.22879 | -77.85020 | 9917 ft | 299 kts | 105° |
| 2026-05-05 00:28 | 25.22413 | -77.82859 | 9673 ft | 290 kts | 105° |
| 2026-05-05 00:29 | 25.22000 | -77.80949 | 9456 ft | 284 kts | 105° |
| 2026-05-05 00:29 | 25.21561 | -77.78919 | 9221 ft | 277 kts | 105° |
| 2026-05-05 00:29 | 25.21162 | -77.77070 | 9002 ft | 272 kts | 105° |
| 2026-05-05 00:29 | 25.20762 | -77.75221 | 8774 ft | 267 kts | 105° |
| 2026-05-05 00:30 | 25.20369 | -77.73408 | 8550 ft | 263 kts | 105° |
| 2026-05-05 00:30 | 25.19961 | -77.71520 | 8282 ft | 257 kts | 105° |
| 2026-05-05 00:30 | 25.19555 | -77.69650 | 7860 ft | 250 kts | 105° |
| 2026-05-05 00:30 | 25.19155 | -77.67806 | 7326 ft | 249 kts | 105° |
| 2026-05-05 00:31 | 25.18754 | -77.65959 | 6751 ft | 250 kts | 104° |
| 2026-05-05 00:31 | 25.18351 | -77.64101 | 6180 ft | 249 kts | 104° |
| 2026-05-05 00:31 | 25.17951 | -77.62271 | 5601 ft | 248 kts | 106° |
| 2026-05-05 00:31 | 25.17317 | -77.60637 | 5059 ft | 244 kts | 121° |
| 2026-05-05 00:32 | 25.16427 | -77.59252 | 4532 ft | 241 kts | 129° |
| 2026-05-05 00:32 | 25.15453 | -77.57979 | 4066 ft | 231 kts | 135° |
| 2026-05-05 00:32 | 25.14411 | -77.56826 | 3406 ft | 231 kts | 135° |
| 2026-05-05 00:32 | 25.13179 | -77.55854 | 2707 ft | 229 kts | 159° |
| 2026-05-05 00:33 | 25.11745 | -77.55660 | 2047 ft | 216 kts | 174° |
| 2026-05-05 00:33 | 25.10588 | -77.55187 | 1681 ft | 174 kts | 136° |
| 2026-05-05 00:33 | 25.09942 | -77.54234 | 1490 ft | 145 kts | 117° |
| 2026-05-05 00:33 | 25.09458 | -77.53294 | 1222 ft | 144 kts | 116° |
| 2026-05-05 00:34 | 25.08975 | -77.52311 | 943 ft | 145 kts | 116° |
| 2026-05-05 00:34 | 25.08489 | -77.51356 | 623 ft | 149 kts | 120° |
| 2026-05-05 00:34 | 25.07853 | -77.50520 | 429 ft | 141 kts | 138° |
| 2026-05-05 00:34 | 25.07162 | -77.49859 | 449 ft | 138 kts | 133° |
| 2026-05-05 00:35 | 25.06522 | -77.49129 | 361 ft | 140 kts | 133° |
| 2026-05-05 00:35 | 25.05950 | -77.48447 | 219 ft | 140 kts | 134° |
| 2026-05-05 00:35 | 25.05365 | -77.47797 | 79 ft | 136 kts | 134° |
| 2026-05-05 00:35 | 25.04812 | -77.47169 | 28 ft | 120 kts | 135° |
| 2026-05-05 00:36 | 25.04354 | -77.46660 | 23 ft | 64 kts | 131° |
| 2026-05-05 00:36 | 25.04164 | -77.46403 | 22 ft | 32 kts | 120° |
| 2026-05-05 00:36 | 25.04105 | -77.46239 | 23 ft | 15 kts | 104° |
| 2026-05-05 00:36 | 25.04138 | -77.46175 | 22 ft | 10 kts | 3° |
| 2026-05-05 00:37 | 25.04197 | -77.46217 | 23 ft | 12 kts | 312° |
| 2026-05-05 00:37 | 25.04259 | -77.46285 | 23 ft | 15 kts | 314° |
| 2026-05-05 00:37 | 25.04328 | -77.46362 | 23 ft | 17 kts | 313° |
| 2026-05-05 00:37 | 25.04405 | -77.46446 | 22 ft | 19 kts | 316° |
| 2026-05-05 00:38 | 25.04491 | -77.46541 | 22 ft | 21 kts | 314° |
| 2026-05-05 00:38 | 25.04585 | -77.46645 | 22 ft | 22 kts | 315° |
| 2026-05-05 00:38 | 25.04663 | -77.46730 | 22 ft | 12 kts | 324° |
| 2026-05-05 00:38 | 25.04728 | -77.46715 | 22 ft | 12 kts | 39° |
| 2026-05-05 00:39 | 25.04788 | -77.46654 | 22 ft | 11 kts | 44° |
| 2026-05-05 00:39 | 25.04821 | -77.46619 | 23 ft | 2 kts | 44° |
| 2026-05-05 00:39 | 25.04840 | -77.46608 | 23 ft | 4 kts | 16° |
| 2026-05-05 00:39 | 25.04854 | -77.46605 | 23 ft | 0 kts | 7° |